English Bay — VRYQ9 — position and weather

sailwx.info

Track history (hours):
 
Tides and Currents Weather Stations Pressure Air Temp Water Temp Dewpoint Dewpoint Depression Visibility Wind Speed Wind Dir Waves Ship Positions

English Bay

Last reported at 2018-Feb-20 00:00 UTC. Time now 2018-Feb-21 05:48 UTC.
Position N 53°24' E 168°36'.

Length 177 m; draft 10.3 m.

Type: Cargo ship. MMSI: 477101000.

Wind from 230 at 38 knots

Barometer 1003.0 mb
Air temperature 2.0 ° C
Visibility: greater than 5.4 NM
Water temperature 4.0 ° C

Date/timePositionNaut miles runAvg speedWind from/ knotsBaromVisibWave heightAir tempDewpointWater temp
2018-Feb-20 00:00N 53°24' E 168°36'60 7.5 230 / 381003.0 5.4 2.0 4.0
2018-Feb-19 16:00N 53°42' E 170°12'   270 / 45993.0 5.4 -0.0 4.0
2018-Feb-17 01:00N 54°24' W 169°42'24310.1 140 / 191030.0 5.4 5.0 5.0
2018-Feb-16 01:00N 54°06' W 162°48'5454111.3 230 / 191019.0 5.4 7.0 5.0
2018-Feb-14 00:00N 50°12' W 014°48'4895181.3 320 / 201039.0 2.2 7.0 7.0
2018-Feb-12 21:00N 48°48' W 140°24'   230 / 201037.0 5.4 7.0 8.0
2018-Feb-10 14:32N 48°21' W 125°34'010.5
2018-Feb-10 14:29N 48°22' W 125°33'611.3
2018-Feb-10 13:56N 48°25' W 125°25'511.4
2018-Feb-10 13:30N 48°27' W 125°19'611.5
2018-Feb-10 12:58N 48°30' W 125°11'611.6
2018-Feb-10 12:29N 48°31' W 125°02'611.7
2018-Feb-10 12:00N 48°31' W 124°54'611.9
2018-Feb-10 11:30N 48°31' W 124°45'611.8
2018-Feb-10 11:00N 48°29' W 124°37'612.1
2018-Feb-10 10:30N 48°26' W 124°28'612.0
2018-Feb-10 10:00N 48°24' W 124°20'611.6
2018-Feb-10 09:30N 48°22' W 124°12'611.4
2018-Feb-10 09:00N 48°20' W 124°04'611.5
2018-Feb-10 08:29N 48°18' W 123°55'21 9.5
2018-Feb-10 06:15N 48°22' W 123°24'2 8.2
2018-Feb-10 06:00N 48°23' W 123°21'4 8.7
2018-Feb-10 05:30N 48°24' W 123°15'510.0
2018-Feb-10 05:00N 48°29' W 123°13'713.4
2018-Feb-10 04:31N 48°35' W 123°14'713.3
2018-Feb-10 04:00N 48°42' W 123°16'612.4
2018-Feb-10 03:30N 48°47' W 123°20'612.4
2018-Feb-10 03:00N 48°52' W 123°26'812.2
2018-Feb-10 02:22N 48°57' W 123°35'3 8.6
2018-Feb-10 02:00N 48°54' W 123°36'2 3.4
2018-Feb-10 01:24N 48°52' W 123°38'0 0.0
2018-Feb-10 00:03N 48°52' W 123°38'0 0.0
2018-Feb-10 00:00N 48°52' W 123°38'  
Track history (hours):
 
Tides and Currents Weather Stations Pressure Air Temp Water Temp Dewpoint Dewpoint Depression Visibility Wind Speed Wind Dir Waves Ship Positions

English Bay

Last reported at 2018-Feb-20 00:00 UTC. Time now 2018-Feb-21 05:48 UTC.
Position N 53°24' E 168°36'.

Length 177 m; draft 10.3 m.

Type: Cargo ship. MMSI: 477101000.

Wind from 230 at 38 knots

Barometer 1003.0 mb
Air temperature 2.0 ° C
Visibility: greater than 5.4 NM
Water temperature 4.0 ° C

Date/timePositionNaut miles runAvg speedWind from/ knotsBaromVisibWave heightAir tempDewpointWater temp
2018-Feb-20 00:00N 53°24' E 168°36'60 7.5 230 / 381003.0 5.4 2.0 4.0
2018-Feb-19 16:00N 53°42' E 170°12'   270 / 45993.0 5.4 -0.0 4.0
2018-Feb-17 01:00N 54°24' W 169°42'24310.1 140 / 191030.0 5.4 5.0 5.0
2018-Feb-16 01:00N 54°06' W 162°48'5454111.3 230 / 191019.0 5.4 7.0 5.0
2018-Feb-14 00:00N 50°12' W 014°48'4895181.3 320 / 201039.0 2.2 7.0 7.0
2018-Feb-12 21:00N 48°48' W 140°24'   230 / 201037.0 5.4 7.0 8.0
2018-Feb-10 14:32N 48°21' W 125°34'010.5
2018-Feb-10 14:29N 48°22' W 125°33'611.3
2018-Feb-10 13:56N 48°25' W 125°25'511.4
2018-Feb-10 13:30N 48°27' W 125°19'611.5
2018-Feb-10 12:58N 48°30' W 125°11'611.6
2018-Feb-10 12:29N 48°31' W 125°02'611.7
2018-Feb-10 12:00N 48°31' W 124°54'611.9
2018-Feb-10 11:30N 48°31' W 124°45'611.8
2018-Feb-10 11:00N 48°29' W 124°37'612.1
2018-Feb-10 10:30N 48°26' W 124°28'612.0
2018-Feb-10 10:00N 48°24' W 124°20'611.6
2018-Feb-10 09:30N 48°22' W 124°12'611.4
2018-Feb-10 09:00N 48°20' W 124°04'611.5
2018-Feb-10 08:29N 48°18' W 123°55'21 9.5
2018-Feb-10 06:15N 48°22' W 123°24'2 8.2
2018-Feb-10 06:00N 48°23' W 123°21'4 8.7
2018-Feb-10 05:30N 48°24' W 123°15'510.0
2018-Feb-10 05:00N 48°29' W 123°13'713.4
2018-Feb-10 04:31N 48°35' W 123°14'713.3
2018-Feb-10 04:00N 48°42' W 123°16'612.4
2018-Feb-10 03:30N 48°47' W 123°20'612.4
2018-Feb-10 03:00N 48°52' W 123°26'812.2
2018-Feb-10 02:22N 48°57' W 123°35'3 8.6
2018-Feb-10 02:00N 48°54' W 123°36'2 3.4
2018-Feb-10 01:24N 48°52' W 123°38'0 0.0
2018-Feb-10 00:03N 48°52' W 123°38'0 0.0
2018-Feb-10 00:00N 48°52' W 123°38'  

Dump ship's entire track history